Time;durP1;ratioP1;P1;durP2;ratioP2;P2;SDS_P1;SDS_P2;PMS_P1;PMS_P2;Temp;Humidity;BMP_temperature;BMP_pressure;BME280_temperature;BME280_humidity;BME280_pressure;Samples;Min_cycle;Max_cycle;Signal;HPM_P1;HPM_P2
2023/08/25 07:32:21;;;;;;;12.55;6.85;;;;;;;;;;6116709;23;20130;-66
2023/08/25 07:34:47;;;;;;;15.90;7.00;;;;;;;;;;4973945;28;20088;-66
2023/08/25 07:37:14;;;;;;;18.40;6.03;;;;;;;;;;4991700;28;20022;-67
2023/08/25 07:39:40;;;;;;;8.15;5.05;;;;;;;;;;4990633;28;20029;-67
2023/08/25 07:42:07;;;;;;;11.85;6.38;;;;;;;;;;4987976;28;20029;-67
2023/08/25 07:44:33;;;;;;;6.88;5.30;;;;;;;;;;4981785;28;20035;-67
2023/08/25 07:47:00;;;;;;;11.82;5.30;;;;;;;;;;4981983;28;20104;-67
2023/08/25 07:49:26;;;;;;;12.85;6.53;;;;;;;;;;4978420;28;20027;-67
2023/08/25 07:51:52;;;;;;;16.05;6.03;;;;;;;;;;4981180;28;20073;-67
2023/08/25 07:54:19;;;;;;;10.65;5.97;;;;;;;;;;4972455;28;20380;-67
2023/08/25 07:56:45;;;;;;;11.43;5.75;;;;;;;;;;4973428;28;20043;-67
2023/08/25 07:59:11;;;;;;;10.00;4.82;;;;;;;;;;4971244;28;20396;-67
2023/08/25 08:01:38;;;;;;;9.45;5.28;;;;;;;;;;4967226;28;20031;-67
2023/08/25 08:04:04;;;;;;;11.50;4.53;;;;;;;;;;4973700;28;20053;-67
2023/08/25 08:06:31;;;;;;;5.95;4.22;;;;;;;;;;4973520;28;20483;-67
2023/08/25 08:08:57;;;;;;;7.90;3.97;;;;;;;;;;4978525;28;20022;-67
2023/08/25 08:11:23;;;;;;;10.57;4.93;;;;;;;;;;4984886;28;20494;-67
2023/08/25 08:13:50;;;;;;;9.00;4.45;;;;;;;;;;4980173;28;20041;-67
2023/08/25 08:16:16;;;;;;;9.02;4.35;;;;;;;;;;4976359;28;20023;-66
2023/08/25 08:18:42;;;;;;;7.22;3.83;;;;;;;;;;4975727;28;20102;-67
2023/08/25 08:21:09;;;;;;;7.10;4.20;;;;;;;;;;4975565;28;20050;-66
2023/08/25 08:23:35;;;;;;;5.75;4.20;;;;;;;;;;4975621;28;20034;-67
2023/08/25 08:26:03;;;;;;;9.73;4.53;;;;;;;;;;4976033;28;20030;-67
2023/08/25 08:28:29;;;;;;;9.38;4.05;;;;;;;;;;4975615;28;20031;-67
2023/08/25 08:30:58;;;;;;;10.40;4.35;;;;;;;;;;4983445;28;20402;-67
2023/08/25 08:33:25;;;;;;;7.28;4.43;;;;;;;;;;4975128;28;20054;-67
2023/08/25 08:35:51;;;;;;;7.88;4.32;;;;;;;;;;4984703;28;20076;-67
2023/08/25 08:38:18;;;;;;;7.95;4.28;;;;;;;;;;4984646;28;20047;-67
2023/08/25 08:40:44;;;;;;;8.77;4.45;;;;;;;;;;4981385;28;20088;-67
2023/08/25 08:43:14;;;;;;;9.65;4.40;;;;;;;;;;4977392;28;20031;-68
2023/08/25 08:45:43;;;;;;;7.97;5.05;;;;;;;;;;4975798;28;20023;-67
2023/08/25 08:48:10;;;;;;;8.00;5.55;;;;;;;;;;4974934;28;20025;-67
2023/08/25 08:50:37;;;;;;;13.90;5.30;;;;;;;;;;4979873;28;20033;-68
2023/08/25 08:53:06;;;;;;;10.30;5.53;;;;;;;;;;4978664;28;20514;-68
2023/08/25 08:55:34;;;;;;;9.95;5.28;;;;;;;;;;4975582;28;20029;-68
2023/08/25 08:58:00;;;;;;;10.60;5.38;;;;;;;;;;4975192;28;20029;-68
2023/08/25 09:00:27;;;;;;;8.38;5.43;;;;;;;;;;4975744;28;20030;-68
2023/08/25 09:02:54;;;;;;;10.23;5.20;;;;;;;;;;4975290;28;20019;-68
2023/08/25 09:05:21;;;;;;;8.40;5.03;;;;;;;;;;4975440;28;20037;-68
2023/08/25 09:07:48;;;;;;;12.48;4.93;;;;;;;;;;4975699;28;20026;-68
2023/08/25 09:10:15;;;;;;;10.52;5.40;;;;;;;;;;4988276;28;20030;-68
2023/08/25 09:12:41;;;;;;;12.80;5.07;;;;;;;;;;4994869;28;20513;-68
2023/08/25 09:15:08;;;;;;;9.27;5.00;;;;;;;;;;4995047;28;20026;-67
2023/08/25 09:17:35;;;;;;;10.68;4.68;;;;;;;;;;4994309;28;20482;-67
2023/08/25 09:20:05;;;;;;;10.35;5.15;;;;;;;;;;4994673;28;20471;-68
2023/08/25 09:22:32;;;;;;;11.73;5.88;;;;;;;;;;4994542;28;20027;-67
2023/08/25 09:24:58;;;;;;;10.13;5.28;;;;;;;;;;4994758;28;20383;-68
2023/08/25 09:27:26;;;;;;;7.50;4.70;;;;;;;;;;4977458;28;20034;-67
2023/08/25 09:30:06;;;;;;;9.18;5.05;;;;;;;;;;4994588;28;20033;-67
2023/08/25 09:32:33;;;;;;;;;;;;;;;;;;4994504;28;20040;-67
2023/08/25 09:35:12;;;;;;;6.55;4.68;;;;;;;;;;4994335;28;20385;-67
2023/08/25 09:37:42;;;;;;;7.85;5.28;;;;;;;;;;4993952;28;20433;-68
2023/08/25 09:40:12;;;;;;;8.13;5.10;;;;;;;;;;4994513;28;20030;-67
2023/08/25 09:42:38;;;;;;;9.27;5.50;;;;;;;;;;4994220;28;20041;-68
2023/08/25 09:45:05;;;;;;;13.38;5.80;;;;;;;;;;4976831;28;20044;-68
2023/08/25 09:47:32;;;;;;;9.70;5.13;;;;;;;;;;4976458;28;20041;-68
2023/08/25 09:49:59;;;;;;;10.93;5.65;;;;;;;;;;4994385;28;20052;-68
2023/08/25 09:52:29;;;;;;;11.70;5.30;;;;;;;;;;4976664;28;20034;-68
2023/08/25 09:54:55;;;;;;;;;;;;;;;;;;4994951;28;20022;-68
2023/08/25 09:57:24;;;;;;;7.78;5.25;;;;;;;;;;4993992;28;19906;-67
2023/08/25 09:59:50;;;;;;;8.50;4.95;;;;;;;;;;4993666;28;20038;-67
2023/08/25 10:02:17;;;;;;;8.88;5.55;;;;;;;;;;4994158;28;20030;-67
2023/08/25 10:04:43;;;;;;;9.45;4.65;;;;;;;;;;4994016;28;20519;-68
2023/08/25 10:07:10;;;;;;;12.23;5.15;;;;;;;;;;4994151;28;20018;-68
2023/08/25 10:09:37;;;;;;;7.97;5.18;;;;;;;;;;4993677;28;20034;-68
2023/08/25 10:12:07;;;;;;;8.23;4.60;;;;;;;;;;4993871;28;20032;-68
2023/08/25 10:14:36;;;;;;;12.07;5.57;;;;;;;;;;4993738;28;20040;-68
2023/08/25 10:17:03;;;;;;;12.63;4.85;;;;;;;;;;4993542;28;20032;-68
2023/08/25 10:19:32;;;;;;;8.43;4.78;;;;;;;;;;4993683;28;20034;-68
2023/08/25 10:22:01;;;;;;;8.88;5.13;;;;;;;;;;4993874;28;20296;-67
2023/08/25 10:24:29;;;;;;;11.73;4.67;;;;;;;;;;4993764;28;20029;-68
2023/08/25 10:26:56;;;;;;;7.78;4.75;;;;;;;;;;4993579;28;20041;-68
2023/08/25 10:29:24;;;;;;;10.48;4.97;;;;;;;;;;4993178;28;20032;-68
2023/08/25 10:31:54;;;;;;;15.50;5.40;;;;;;;;;;4993550;28;20482;-67
2023/08/25 10:34:32;;;;;;;19.38;4.70;;;;;;;;;;4992622;28;20053;-67
2023/08/25 10:37:08;;;;;;;7.68;4.38;;;;;;;;;;4993463;28;20030;-67
2023/08/25 10:39:50;;;;;;;12.27;4.78;;;;;;;;;;4993359;28;20034;-67
2023/08/25 10:42:21;;;;;;;14.05;4.38;;;;;;;;;;4993276;28;20487;-67
2023/08/25 10:44:52;;;;;;;13.65;5.47;;;;;;;;;;4993293;28;20033;-67
2023/08/25 10:47:19;;;;;;;10.45;4.95;;;;;;;;;;4975971;28;20076;-67
2023/08/25 10:49:46;;;;;;;9.57;4.85;;;;;;;;;;4993466;28;20031;-67
2023/08/25 10:52:16;;;;;;;17.80;9.13;;;;;;;;;;4993463;28;20022;-67
2023/08/25 10:54:45;;;;;;;9.38;4.78;;;;;;;;;;4993288;28;20032;-68
2023/08/25 10:57:23;;;;;;;11.23;5.20;;;;;;;;;;4993145;28;20042;-67
2023/08/25 10:59:53;;;;;;;9.45;4.13;;;;;;;;;;4993215;28;20038;-67
2023/08/25 11:02:38;;;;;;;12.38;4.60;;;;;;;;;;4993184;28;20045;-67
2023/08/25 11:05:23;;;;;;;11.23;4.72;;;;;;;;;;4993213;28;20034;-67
2023/08/25 11:07:49;;;;;;;6.95;4.10;;;;;;;;;;4993123;28;20022;-67
2023/08/25 11:10:15;;;;;;;9.07;4.78;;;;;;;;;;4993102;28;20036;-67
2023/08/25 11:12:42;;;;;;;10.15;4.53;;;;;;;;;;4992679;28;20430;-68
2023/08/25 11:15:08;;;;;;;8.75;4.38;;;;;;;;;;4992928;28;20030;-67
2023/08/25 11:17:35;;;;;;;8.35;4.22;;;;;;;;;;4992894;28;20034;-67
2023/08/25 11:20:02;;;;;;;8.88;4.70;;;;;;;;;;4992892;28;20027;-67
2023/08/25 11:22:28;;;;;;;8.07;4.97;;;;;;;;;;4993020;28;20486;-67
2023/08/25 11:24:55;;;;;;;6.35;4.38;;;;;;;;;;4992769;28;20033;-67
2023/08/25 11:27:23;;;;;;;12.43;4.60;;;;;;;;;;4992404;28;20386;-67
2023/08/25 11:29:49;;;;;;;11.43;4.95;;;;;;;;;;4993011;28;20087;-67
2023/08/25 11:32:16;;;;;;;13.55;5.43;;;;;;;;;;4992783;28;20026;-67
2023/08/25 11:34:47;;;;;;;8.80;4.50;;;;;;;;;;4992537;28;20043;-67
2023/08/25 11:37:14;;;;;;;10.38;7.85;;;;;;;;;;4992563;28;20041;-67
2023/08/25 11:39:44;;;;;;;7.43;5.22;;;;;;;;;;4992481;28;20038;-67
2023/08/25 11:42:10;;;;;;;9.70;5.47;;;;;;;;;;4992357;28;20023;-67
2023/08/25 11:44:40;;;;;;;7.30;4.72;;;;;;;;;;4992845;28;20084;-67
2023/08/25 11:47:07;;;;;;;7.47;4.18;;;;;;;;;;4996202;28;20405;-67
2023/08/25 11:49:33;;;;;;;14.70;4.93;;;;;;;;;;4996350;28;20037;-67
2023/08/25 11:52:00;;;;;;;9.80;4.70;;;;;;;;;;4996662;28;20045;-67
2023/08/25 11:54:26;;;;;;;10.73;5.03;;;;;;;;;;4997251;28;20025;-67
2023/08/25 11:56:53;;;;;;;7.97;5.05;;;;;;;;;;4996117;28;20034;-67
2023/08/25 11:59:19;;;;;;;11.45;5.93;;;;;;;;;;4996410;28;20038;-68
2023/08/25 12:01:49;;;;;;;8.90;5.13;;;;;;;;;;4996594;28;20026;-67
2023/08/25 12:04:22;;;;;;;9.38;5.80;;;;;;;;;;4996528;28;20038;-67
2023/08/25 12:06:57;;;;;;;15.38;5.25;;;;;;;;;;4996442;28;20027;-67
2023/08/25 12:09:24;;;;;;;11.52;6.40;;;;;;;;;;4996137;28;20391;-67
2023/08/25 12:12:03;;;;;;;8.27;5.78;;;;;;;;;;4993536;28;20028;-68
2023/08/25 12:14:30;;;;;;;11.68;5.80;;;;;;;;;;4982830;28;20030;-68
2023/08/25 12:16:58;;;;;;;9.25;5.72;;;;;;;;;;4989648;28;20093;-67
2023/08/25 12:19:26;;;;;;;9.07;6.10;;;;;;;;;;4976037;28;20054;-68
2023/08/25 12:21:56;;;;;;;12.57;6.32;;;;;;;;;;4975835;28;20025;-68
2023/08/25 12:24:22;;;;;;;;;;;;;;;;;;4976074;28;20027;-68
2023/08/25 12:26:49;;;;;;;8.90;6.30;;;;;;;;;;4981918;28;19964;-67
2023/08/25 12:29:15;;;;;;;9.93;5.45;;;;;;;;;;4976773;28;20023;-67
2023/08/25 12:31:42;;;;;;;10.98;6.22;;;;;;;;;;4980573;28;20034;-67
2023/08/25 12:34:08;;;;;;;10.57;6.22;;;;;;;;;;4985258;28;20047;-67
2023/08/25 12:36:35;;;;;;;11.25;6.28;;;;;;;;;;4986007;28;20034;-67
2023/08/25 12:39:03;;;;;;;12.35;6.57;;;;;;;;;;4978540;28;20045;-67
2023/08/25 12:41:29;;;;;;;9.18;5.90;;;;;;;;;;4984111;28;20065;-67
2023/08/25 12:43:58;;;;;;;9.15;6.53;;;;;;;;;;4975254;28;20022;-67
2023/08/25 12:46:25;;;;;;;13.07;6.90;;;;;;;;;;4976360;28;20018;-67
2023/08/25 12:48:51;;;;;;;11.02;7.40;;;;;;;;;;4975355;28;20041;-67
2023/08/25 12:51:17;;;;;;;11.82;6.70;;;;;;;;;;4983909;28;20033;-67
2023/08/25 12:53:43;;;;;;;11.48;6.90;;;;;;;;;;4974772;28;20031;-67
2023/08/25 12:56:10;;;;;;;15.95;7.00;;;;;;;;;;4958280;28;20026;-67
2023/08/25 12:58:39;;;;;;;11.13;6.65;;;;;;;;;;4974106;28;20046;-67
2023/08/25 13:01:08;;;;;;;11.63;7.03;;;;;;;;;;4983660;28;20088;-68
2023/08/25 13:03:34;;;;;;;11.32;6.40;;;;;;;;;;4974884;28;20026;-68
2023/08/25 13:06:03;;;;;;;10.40;6.25;;;;;;;;;;4975849;28;20015;-67
2023/08/25 13:08:29;;;;;;;12.40;7.18;;;;;;;;;;4974549;28;20030;-67
2023/08/25 13:10:56;;;;;;;8.65;6.30;;;;;;;;;;4982028;28;20026;-67
2023/08/25 13:13:22;;;;;;;9.20;6.32;;;;;;;;;;4976140;28;20038;-67
2023/08/25 13:15:48;;;;;;;11.63;6.35;;;;;;;;;;4975766;28;20045;-67
2023/08/25 13:18:14;;;;;;;8.43;6.32;;;;;;;;;;4974561;28;20493;-67
2023/08/25 13:20:41;;;;;;;10.77;6.28;;;;;;;;;;4979558;28;20046;-67
2023/08/25 13:23:07;;;;;;;8.95;6.30;;;;;;;;;;4978062;28;20019;-67
2023/08/25 13:25:33;;;;;;;9.02;5.15;;;;;;;;;;4975094;28;20033;-67
2023/08/25 13:28:00;;;;;;;8.75;5.47;;;;;;;;;;4974509;28;20015;-67
2023/08/25 13:30:26;;;;;;;7.40;5.57;;;;;;;;;;4976410;28;20034;-67
2023/08/25 13:32:53;;;;;;;7.82;4.75;;;;;;;;;;4980504;28;20407;-68
2023/08/25 13:35:19;;;;;;;7.78;4.65;;;;;;;;;;4974926;28;20045;-67
2023/08/25 13:37:45;;;;;;;4.40;3.83;;;;;;;;;;4988617;28;20035;-67
2023/08/25 13:40:12;;;;;;;5.00;3.78;;;;;;;;;;4974485;28;20037;-67
2023/08/25 13:42:38;;;;;;;4.68;3.65;;;;;;;;;;4983065;28;20019;-67
2023/08/25 13:45:05;;;;;;;3.90;3.47;;;;;;;;;;4973922;28;20023;-67
2023/08/25 13:47:31;;;;;;;4.57;3.70;;;;;;;;;;4974954;28;20040;-67
2023/08/25 13:49:58;;;;;;;8.63;4.00;;;;;;;;;;4974118;28;20038;-67
2023/08/25 13:52:24;;;;;;;6.78;4.07;;;;;;;;;;4982452;28;20037;-67
2023/08/25 13:54:51;;;;;;;8.75;4.30;;;;;;;;;;4974099;28;20043;-68
2023/08/25 13:57:17;;;;;;;5.65;3.80;;;;;;;;;;4974718;28;20033;-67
2023/08/25 13:59:43;;;;;;;5.03;4.10;;;;;;;;;;4973626;28;20037;-67
2023/08/25 14:02:09;;;;;;;8.07;4.10;;;;;;;;;;4982615;28;20475;-67
2023/08/25 14:04:36;;;;;;;6.20;4.63;;;;;;;;;;4973843;28;20023;-67
2023/08/25 14:07:02;;;;;;;9.50;4.78;;;;;;;;;;4973966;28;20033;-68
2023/08/25 14:09:29;;;;;;;5.00;4.50;;;;;;;;;;4973533;28;20030;-67
2023/08/25 14:11:55;;;;;;;7.28;4.40;;;;;;;;;;4982265;28;20086;-67
2023/08/25 14:14:22;;;;;;;8.77;3.90;;;;;;;;;;4973315;28;20084;-67
2023/08/25 14:16:48;;;;;;;7.80;4.50;;;;;;;;;;4979782;28;20037;-67
2023/08/25 14:19:14;;;;;;;7.55;4.35;;;;;;;;;;4978950;28;20515;-68
2023/08/25 14:21:41;;;;;;;7.88;4.68;;;;;;;;;;4981870;28;20033;-67
2023/08/25 14:24:07;;;;;;;12.07;5.20;;;;;;;;;;4973503;28;20034;-67
2023/08/25 14:26:34;;;;;;;9.70;5.25;;;;;;;;;;4974375;28;20015;-67
2023/08/25 14:29:00;;;;;;;7.95;4.80;;;;;;;;;;4973444;28;20082;-67
2023/08/25 14:31:26;;;;;;;13.07;5.35;;;;;;;;;;4980238;28;20229;-67
2023/08/25 14:33:53;;;;;;;8.77;5.35;;;;;;;;;;4975773;28;20515;-68
2023/08/25 14:36:19;;;;;;;13.88;5.88;;;;;;;;;;4976980;28;20019;-67
2023/08/25 14:38:45;;;;;;;10.32;5.35;;;;;;;;;;4973208;28;20439;-67
2023/08/25 14:41:13;;;;;;;11.30;5.57;;;;;;;;;;4977682;28;20127;-67
2023/08/25 14:43:40;;;;;;;18.92;5.38;;;;;;;;;;4977398;28;20027;-66
2023/08/25 14:46:09;;;;;;;13.43;5.55;;;;;;;;;;4974136;28;20517;-68
2023/08/25 14:48:36;;;;;;;17.60;5.45;;;;;;;;;;4973223;28;20030;-67
